Terminal Aerodrome Forecast
Issued by NWS

Home | Current Version | Previous Version | Graphics & Text | Print | Product List | Glossary On
Versions: 1 2 3 4 5 6 7 8 9 10 11 12 13 14 15
038
FTUS43 KBIS 290521
TAFMOT
TAF
KMOT 290521Z 2906/3006 01004KT P6SM SCT150
     FM291600 08010KT P6SM SCT130
     FM300200 07007KT P6SM SKC=

USA.gov is the U.S. government's official web portal to all federal, state and local government web resources and services.